TOURFACTS.DK  
Stats and Facts from Tour de France.

Tour de France 2018 starts in 320 days
  Riders   Stages   Teams   Summits   Yearly  


 
Search by year

 2017 - St. 21:  14824 starters.
  5131 different riders.
  634 teams.
  2232 stages.
  454 restdays.
  439589.60 km.
  5653 abandonnees.


Top 3
Christopher Froome86:20:55
Rigoberto Uran86:21:49
Romain Bardet86:23:15
Warren Barguil169 pt.
Primoz Roglic80 pt.
Thomas De Gendt64 pt.
Michael Matthews359 pt.
André Greipel234 pt.
Edvald Boasson Hagen220 pt.
Simon Yates86:27:09
Louis Meintjes86:29:15
Emanuel Buchmann86:54:16
Facts from Tour de France 2017
  |   Stages.  |   Stage winners.  |   Days in yellow  |   Average speed.  |   Route.  |   Teams.  |   All riders.  |   Rookies.  |   Withdrawls.  |  

  |   GC.  |   Polka  |   Green  |   White  |   Summits. (In tour)  |   Summits. (Points)  |   Miscellaneous.  |  

Stage 13 on 14 - 07 - 2017
         Owning:    Fabio Aru      Warren Barguil      Marcel Kittel      Simon Yates  

Pick a stage:  1 2 3 4 5 6 7 8 9 10 11 12 13 14 15 16 17 18 19 20 21
  Saint-GironsFoix | Dist: 101.00 km.
Cat: 1Col de LatrapeITAAlessandro De Marchi
10 points
 
Cat: 1Col d'Agnes - MassatESPAlberto Contador
10 points
 
Cat: 1Mur de PéguèreFRAWarren Barguil
10 points
 

Average speed for all riders in stage:  35,642 km./hr.
    Place:Name:Team:Time:Km/h:
FRAWarren BarguilDEUTeam Sunweb02:36:29  +  00:00:00=38,726 
COLNairo QuintanaESPMovistar Team02:36:29  +  00:00:00=38,726 
ESPAlberto ContadorUSATrek – Segafredo02:36:29  +  00:00:00=38,726 
4 ESPMikel Landa MeanaGBRSky Procycling02:36:31  +  00:00:02=38,718 
5 ENGSimon YatesAUSOrica - Scott02:38:08  +  00:01:39=38,322 
6 ENGDaniel MartinBELQuick-Step Floors02:38:08  +  00:01:39=38,322 
7 POLMichal KwiatkowskiGBRSky Procycling02:38:17  +  00:01:48=38,286 
8 KENChristopher FroomeGBRSky Procycling02:38:17  +  00:01:48=38,286 
9 ITAFabio AruKAZAstana Pro Team02:38:17  +  00:01:48=38,286 
10 COLRigoberto UranUSACannondale-Drapac Pro Cycling ..02:38:17  +  00:01:48=38,286 
11 FRARomain BardetFRAAg2r La Mondiale02:38:17  +  00:01:48=38,286 
12 RSALouis MeintjesUAEUAE Team Emirates02:38:17  +  00:01:48=38,286 
13 COLCarlos Alberto BetancurESPMovistar Team02:38:17  +  00:01:48=38,286 
14 ITADiego UlissiUAEUAE Team Emirates02:38:17  +  00:01:48=38,286 
15 FRAPierre-Roger LatourFRAAg2r La Mondiale02:38:17  +  00:01:48=38,286 
16 BELSerge PauwelsZAFDimension Data02:38:17  +  00:01:48=38,286 
17 FRAAlexis VuillermozFRAAg2r La Mondiale02:38:17  +  00:01:48=38,286 
18 ITADamiano CarusoUSABMC Racing Team02:38:17  +  00:01:48=38,286 
19 FRAGuillaume MartinBELWanty – Groupe Gobert02:38:17  +  00:01:48=38,286 
20 GEREmanuel BuchmannDEUBora–Hansgrohe02:38:17  +  00:01:48=38,286 
21 ESPMikel NieveGBRSky Procycling02:38:17  +  00:01:48=38,286 
22 NZLGeorge BennettNLDTeam Lotto NL - Jumbo02:38:17  +  00:01:48=38,286 
23 FRAPierre-Luc PérichonFRAFortuneo - Vital Concept02:42:25  +  00:05:56=37,311 
24 FRATony GallopinBELLotto Soudal02:42:25  +  00:05:56=37,311 
25 ESPDaniel NavarroFRACofidis – Solutions Crédits02:42:25  +  00:05:56=37,311 
26 ESPJonathan CastroviejoESPMovistar Team02:42:25  +  00:05:56=37,311 
27 FRARomain SicardFRADirect Energie02:42:25  +  00:05:56=37,311 
28 BELGreg Van AvermaetUSABMC Racing Team02:42:25  +  00:05:56=37,311 
29 SLOPrimoz RoglicNLDTeam Lotto NL - Jumbo02:42:25  +  00:05:56=37,311 
30 CZERoman KreuzigerAUSOrica - Scott02:42:25  +  00:05:56=37,311 
31 FRAMaxime BouetFRAFortuneo - Vital Concept02:42:25  +  00:05:56=37,311 
32 FRABrice FeilluFRAFortuneo - Vital Concept02:42:25  +  00:05:56=37,311 
33 KAZAndrey ZeitsKAZAstana Pro Team02:42:25  +  00:05:56=37,311 
34 FRARomain HardyFRAFortuneo - Vital Concept02:42:25  +  00:05:56=37,311 
35 BELThomas DegandBELWanty – Groupe Gobert02:42:25  +  00:05:56=37,311 
36 FRAAmaël MoinardUSABMC Racing Team02:42:25  +  00:05:56=37,311 
37 COLDarwin AtapumaUAEUAE Team Emirates02:42:25  +  00:05:56=37,311 
38 HRVKristijan DurasekUAEUAE Team Emirates02:42:25  +  00:05:56=37,311 
39 NEDBauke MollemaUSATrek – Segafredo02:42:25  +  00:05:56=37,311 
40 LUXBen GastauerFRAAg2r La Mondiale02:42:25  +  00:05:56=37,311 
41 FRASylvain ChavanelFRADirect Energie02:44:28  +  00:07:59=36,846 
42 FRACyril GautierFRAAg2r La Mondiale02:50:49  +  00:14:20=35,477 
43 BELFrederik BackaertBELWanty – Groupe Gobert02:50:49  +  00:14:20=35,477 
44 NEDMarco MinnaardBELWanty – Groupe Gobert02:50:49  +  00:14:20=35,477 
45 FRAAxel DomontFRAAg2r La Mondiale02:50:49  +  00:14:20=35,477 
46 BELThomas De GendtBELLotto Soudal02:50:49  +  00:14:20=35,477 
47 BELOliver NaesenFRAAg2r La Mondiale02:50:49  +  00:14:20=35,477 
48 ITAAlberto BettiolUSACannondale-Drapac Pro Cycling ..02:50:49  +  00:14:20=35,477 
49 ESPJavier Moreno BazánBHRBahrain-Merida02:50:49  +  00:14:20=35,477 
50 GERGianluca BrambillaBELQuick-Step Floors02:50:49  +  00:14:20=35,477 
51 BELJan BakelantsFRAAg2r La Mondiale02:50:49  +  00:14:20=35,477 
52 GERSimon GeschkeDEUTeam Sunweb02:50:49  +  00:14:20=35,477 
53 BELTiesj BenootBELLotto Soudal02:50:49  +  00:14:20=35,477 
54 COLSergio Luis HenaoGBRSky Procycling02:50:49  +  00:14:20=35,477 
55 CZEOndrej CinkBHRBahrain-Merida02:50:49  +  00:14:20=35,477 
56 BLRVasil KiryienkaGBRSky Procycling02:50:49  +  00:14:20=35,477 
57 FRANicolas RocheUSABMC Racing Team02:50:49  +  00:14:20=35,477 
58 ESPHaimar ZubeldiaUSATrek – Segafredo02:50:49  +  00:14:20=35,477 
59 FRALilian CalmejaneFRADirect Energie02:50:49  +  00:14:20=35,477 
60 HRVRobert KiserlovskiCHETeam Katusha - Alpecin02:50:49  +  00:14:20=35,477 
61 COLJohan Esteban ChavesAUSOrica - Scott02:50:49  +  00:14:20=35,477 
62 SLOJanez BrajkovicBHRBahrain-Merida02:50:49  +  00:14:20=35,477 
63 ITAAlessandro De MarchiUSABMC Racing Team02:50:49  +  00:14:20=35,477 
64 NEDMaurits LammertinkCHETeam Katusha - Alpecin02:52:10  +  00:15:41=35,198 
65 FRAAdrien PetitFRADirect Energie02:52:10  +  00:15:41=35,198 
66 BELGuillaume Van KeirsbulckBELWanty – Groupe Gobert02:52:10  +  00:15:41=35,198 
67 ETHTsgabu Gebremaryan GrmayBHRBahrain-Merida02:52:10  +  00:15:41=35,198 
68 AUSAdam HansenBELLotto Soudal02:52:10  +  00:15:41=35,198 
69 DENMichael ValgrenKAZAstana Pro Team02:52:10  +  00:15:41=35,198 
70 NEDRoy CurversDEUTeam Sunweb02:52:10  +  00:15:41=35,198 
71 GERJasha SütterlinESPMovistar Team02:52:10  +  00:15:41=35,198 
72 NEDMike TeunissenDEUTeam Sunweb02:52:10  +  00:15:41=35,198 
73 SUIMichael SchärUSABMC Racing Team02:52:10  +  00:15:41=35,198 
74 ENGScott ThwaitesZAFDimension Data02:52:10  +  00:15:41=35,198 
75 AUTMarco HallerCHETeam Katusha - Alpecin02:52:10  +  00:15:41=35,198 
76 GERNils PolittCHETeam Katusha - Alpecin02:52:10  +  00:15:41=35,198 
77 GERNikias ArndtDEUTeam Sunweb02:52:10  +  00:15:41=35,198 
78 FRARudy MolardFRAFDJ02:52:10  +  00:15:41=35,198 
79 FRAYoann OffredoBELWanty – Groupe Gobert02:52:10  +  00:15:41=35,198 
80 FRANicolas EdetFRACofidis – Solutions Crédits02:52:10  +  00:15:41=35,198 
81 RSADaryl ImpeyAUSOrica - Scott02:52:10  +  00:15:41=35,198 
82 GERTony MartinCHETeam Katusha - Alpecin02:52:10  +  00:15:41=35,198 
83 BELPieter VanspeybrouckBELWanty – Groupe Gobert02:52:10  +  00:15:41=35,198 
84 AUSJay McCarthyDEUBora–Hansgrohe02:52:10  +  00:15:41=35,198 
85 NZLPaddy BevinUSACannondale-Drapac Pro Cycling ..02:52:10  +  00:15:41=35,198 
86 NEDLaurens ten DamDEUTeam Sunweb02:52:10  +  00:15:41=35,198 
87 NEDDylan Van BaarleUSACannondale-Drapac Pro Cycling ..02:52:10  +  00:15:41=35,198 
88 GERChristian KneesGBRSky Procycling02:52:10  +  00:15:41=35,198 
89 USAAndrew TalanskyUSACannondale-Drapac Pro Cycling ..02:52:10  +  00:15:41=35,198 
90 SUIReto HollensteinCHETeam Katusha - Alpecin02:52:10  +  00:15:41=35,198 
91 GERPaul MartensNLDTeam Lotto NL - Jumbo02:52:10  +  00:15:41=35,198 
92 ESPImanol ErvitiESPMovistar Team02:52:10  +  00:15:41=35,198 
93 FRAElie GesbertFRAFortuneo - Vital Concept02:52:10  +  00:15:41=35,198 
94 FRAPerrig QuemeneurFRADirect Energie02:52:10  +  00:15:41=35,198 
95 FRAYohann GèneFRADirect Energie02:52:10  +  00:15:41=35,198 
96 CRCAndrey AmadorESPMovistar Team02:52:10  +  00:15:41=35,198 
97 NZLDion SmithBELWanty – Groupe Gobert02:52:10  +  00:15:41=35,198 
98 SUIMathias FrankFRAAg2r La Mondiale02:52:10  +  00:15:41=35,198 
99 FRAAngelo TulikFRADirect Energie02:52:10  +  00:15:41=35,198 
100 FRAThomas VoecklerFRADirect Energie02:52:10  +  00:15:41=35,198 
101 FRAThibaut PinotFRAFDJ02:52:10  +  00:15:41=35,198 
102 JPNYukiya ArashiroBHRBahrain-Merida02:52:10  +  00:15:41=35,198 
103 AUSDamien HowsonAUSOrica - Scott02:52:10  +  00:15:41=35,198 
104 AUSSimon ClarkeUSACannondale-Drapac Pro Cycling ..02:52:10  +  00:15:41=35,198 
105 ESPLuis Angel MateFRACofidis – Solutions Crédits02:52:10  +  00:15:41=35,198 
106 ITAMarco MarcatoUAEUAE Team Emirates02:52:10  +  00:15:41=35,198 
107 ARGEduardo SepulvedaFRAFortuneo - Vital Concept02:52:10  +  00:15:41=35,198 
108 SLOGrega BoleBHRBahrain-Merida02:52:10  +  00:15:41=35,198 
109 PORTiago PintoCHETeam Katusha - Alpecin02:52:10  +  00:15:41=35,198 
110 NEDKoen De KortUSATrek – Segafredo02:52:10  +  00:15:41=35,198 
111 COLJarlinson Pantano GomezUSATrek – Segafredo02:52:10  +  00:15:41=35,198 
112 NORAlexander KristoffCHETeam Katusha - Alpecin02:52:10  +  00:15:41=35,198 
113 FRAChristophe LaporteFRACofidis – Solutions Crédits02:52:10  +  00:15:41=35,198 
114 SUIStefan KüngUSABMC Racing Team02:52:10  +  00:15:41=35,198 
115 ESPJesus HerradaESPMovistar Team02:52:10  +  00:15:41=35,198 
116 BELJulien VermoteBELQuick-Step Floors02:52:10  +  00:15:41=35,198 
117 KAZDmitriy GruzdevKAZAstana Pro Team02:52:10  +  00:15:41=35,198 
118 USANathan BrownUSACannondale-Drapac Pro Cycling ..02:52:10  +  00:15:41=35,198 
119 BELPhilippe GilbertBELQuick-Step Floors02:52:10  +  00:15:41=35,198 
120 SUIDanilo WyssUSABMC Racing Team02:52:10  +  00:15:41=35,198 
121 ITAAndrea PasqualonBELWanty – Groupe Gobert02:52:10  +  00:15:41=35,198 
122 BELJens KeukeleireAUSOrica - Scott02:52:10  +  00:15:41=35,198 
123 GERRick ZabelCHETeam Katusha - Alpecin02:52:10  +  00:15:41=35,198 
124 NEDTimo RoosenNLDTeam Lotto NL - Jumbo02:52:10  +  00:15:41=35,198 
125 SUIMichael AlbasiniAUSOrica - Scott02:52:10  +  00:15:41=35,198 
126 CZEZdenek StybarBELQuick-Step Floors02:52:10  +  00:15:41=35,198 
127 NOREdvald Boasson HagenZAFDimension Data02:52:10  +  00:15:41=35,198 
128 ITASonny ColbrelliBHRBahrain-Merida02:52:10  +  00:15:41=35,198 
129 ITADaniele BennatiESPMovistar Team02:52:10  +  00:15:41=35,198 
130 POLMaciej BodnarDEUBora–Hansgrohe02:52:10  +  00:15:41=35,198 
131 ENGBen SwiftUAEUAE Team Emirates02:52:10  +  00:15:41=35,198 
132 FRAJulien SimonFRACofidis – Solutions Crédits02:52:10  +  00:15:41=35,198 
133 SLOBorut BozicBHRBahrain-Merida02:52:10  +  00:15:41=35,198 
134 ITAMatteo BonoUAEUAE Team Emirates02:52:10  +  00:15:41=35,198 
135 AUTMichael GoglUSATrek – Segafredo02:52:10  +  00:15:41=35,198 
136 KAZBakhtiyar KozhatayevKAZAstana Pro Team02:52:10  +  00:15:41=35,198 
137 NORVegard Stake LaengenUAEUAE Team Emirates02:52:10  +  00:15:41=35,198 
138 AUSMichael MatthewsDEUTeam Sunweb02:52:10  +  00:15:41=35,198 
139 ESPMarkel IrizarUSATrek – Segafredo02:52:10  +  00:15:41=35,198 
140 FRAOlivier Le GacFRAFDJ02:52:10  +  00:15:41=35,198 
141 DDRRüdiger SeligDEUBora–Hansgrohe02:52:10  +  00:15:41=35,198 
142 GERJohn DegenkolbUSATrek – Segafredo02:52:10  +  00:15:41=35,198 
143 FRACyril LemoineFRACofidis – Solutions Crédits02:52:10  +  00:15:41=35,198 
144 RSAReinardt Janse Van RensburgZAFDimension Data02:52:10  +  00:15:41=35,198 
145 NEDAlbert TimmerDEUTeam Sunweb02:52:25  +  00:15:56=35,147 
146 BELDimitri ClaeysFRACofidis – Solutions Crédits02:52:25  +  00:15:56=35,147 
147 FRALaurent PichonFRAFortuneo - Vital Concept02:52:25  +  00:15:56=35,147 
148 FRAThomas BoudatFRADirect Energie02:52:25  +  00:15:56=35,147 
149 FRAFlorian VachonFRAFortuneo - Vital Concept02:52:25  +  00:15:56=35,147 
150 RSAJaco VenterZAFDimension Data02:55:53  +  00:19:24=34,455 
151 ITADavide CimolaiFRAFDJ02:55:53  +  00:19:24=34,455 
152 FRANacer BouhanniFRACofidis – Solutions Crédits02:55:53  +  00:19:24=34,455 
153 WALLuke RoweGBRSky Procycling02:55:53  +  00:19:24=34,455 
154 NEDTom LeezerNLDTeam Lotto NL - Jumbo02:55:53  +  00:19:24=34,455 
155 AUSMathew HaymanAUSOrica - Scott02:55:53  +  00:19:24=34,455 
156 KAZAlexey LutsenkoKAZAstana Pro Team02:55:53  +  00:19:24=34,455 
157 BELTim WellensBELLotto Soudal02:57:34  +  00:21:05=34,128 
158 NEDRamon SinkeldamDEUTeam Sunweb02:57:34  +  00:21:05=34,128 
159 POLPawel PoljanskiDEUBora–Hansgrohe02:57:34  +  00:21:05=34,128 
160 GERAndré GreipelBELLotto Soudal02:57:34  +  00:21:05=34,128 
161 ITAFabio SabatiniBELQuick-Step Floors02:57:34  +  00:21:05=34,128 
162 FRAPierre RollandUSACannondale-Drapac Pro Cycling ..02:57:34  +  00:21:05=34,128 
163 GERMarcel SiebergBELLotto Soudal02:57:34  +  00:21:05=34,128 
164 DENLars BakBELLotto Soudal02:57:34  +  00:21:05=34,128 
165 GERMarcus BurghardtDEUBora–Hansgrohe02:57:34  +  00:21:05=34,128 
166 AUTBernhard EiselZAFDimension Data02:57:34  +  00:21:05=34,128 
167 GERMarcel KittelBELQuick-Step Floors02:57:34  +  00:21:05=34,128 
168 GERRobert WagnerNLDTeam Lotto NL - Jumbo02:57:34  +  00:21:05=34,128 
169 ENGStephen CummingsZAFDimension Data02:57:34  +  00:21:05=34,128 
170 NZLJack BauerBELQuick-Step Floors02:57:34  +  00:21:05=34,128 
171 USATaylor PhinneyUSACannondale-Drapac Pro Cycling ..02:57:34  +  00:21:05=34,128 
172 BELJürgen RoelandtsBELLotto Soudal02:57:34  +  00:21:05=34,128 
173 ENGDaniel McLayFRAFortuneo - Vital Concept02:57:34  +  00:21:05=34,128 
174 UKRAndriy GrivkoKAZAstana Pro Team02:57:34  +  00:21:05=34,128 
175 FRAFlorian SénéchalFRACofidis – Solutions Crédits02:57:34  +  00:21:05=34,128 
176 NEDDylan GroenewegenNLDTeam Lotto NL - Jumbo02:57:34  +  00:21:05=34,128 
177 ITAFabio FellineUSATrek – Segafredo03:03:39  +  00:27:10=32,998 

Withdrawls: 2
 
Rider
Team
Reason
53  SUIJakob FuglsangKAZAstana Pro TeamDid not finish
79  FRAArthur VichotFRAFDJDid not finish

Todays birthdays.

1878  Jean Novo
1883  Jules Chabas
1890  Ange Aubry
1893  Roger Marye
1913  Paul Maye
1914  Lucien Vlaemynck
1915  Alphonse Antoine
1932  Rolf Graf
1953  Julio Rubiano
1959  Jos Haex
1959  Gerard Veldscholten
1963  Pablo Moreno
1964  Juan Castillo
1977  Iban Mayo